createdAt,value
2024-03-21T00:00:38.168Z,3.40
2024-03-21T00:03:29.840Z,3.31
2024-03-21T00:06:01.369Z,3.23
2024-03-21T00:08:32.978Z,3.18
2024-03-21T00:11:04.731Z,3.14
2024-03-21T00:13:36.239Z,3.09
2024-03-21T00:16:09.846Z,3.03
2024-03-21T00:18:43.206Z,3.02
2024-03-21T00:21:14.831Z,2.98
2024-03-21T00:23:46.462Z,2.95
2024-03-21T00:26:17.854Z,2.90
2024-03-21T00:28:51.348Z,2.86
2024-03-21T00:31:22.896Z,2.84
2024-03-21T00:33:54.491Z,2.79
2024-03-21T00:36:26.147Z,2.77
2024-03-21T00:38:58.459Z,2.74
2024-03-21T00:41:30.078Z,2.78
2024-03-21T00:44:01.652Z,2.84
2024-03-21T00:46:34.208Z,2.88
2024-03-21T00:49:05.537Z,2.89
2024-03-21T00:51:37.025Z,2.89
2024-03-21T00:54:09.213Z,2.88
2024-03-21T00:56:40.797Z,2.88
2024-03-21T00:59:12.264Z,2.90
2024-03-21T01:01:43.853Z,2.92
2024-03-21T01:04:15.701Z,2.91
2024-03-21T01:06:47.298Z,2.87
2024-03-21T01:09:19.339Z,2.86
2024-03-21T01:11:51.089Z,2.88
2024-03-21T01:14:22.560Z,2.84
2024-03-21T01:16:53.993Z,2.79
2024-03-21T01:19:25.398Z,2.76
2024-03-21T01:21:57.018Z,2.74
2024-03-21T01:24:29.165Z,2.73
2024-03-21T01:27:00.736Z,2.67
2024-03-21T01:29:34.507Z,2.61
2024-03-21T01:32:07.210Z,2.55
2024-03-21T01:34:38.764Z,2.52
2024-03-21T01:37:10.238Z,2.47
2024-03-21T01:39:41.971Z,2.42
2024-03-21T01:42:18.171Z,2.37
2024-03-21T01:45:03.880Z,2.31
2024-03-21T01:47:35.478Z,2.21
2024-03-21T01:50:08.426Z,2.19
2024-03-21T01:52:41.766Z,2.14
2024-03-21T01:55:15.579Z,2.01
2024-03-21T01:57:49.184Z,1.93
2024-03-21T02:00:22.086Z,1.82
2024-03-21T02:02:53.708Z,1.76
2024-03-21T02:05:25.259Z,1.70
2024-03-21T02:07:56.848Z,1.71
2024-03-21T02:10:28.323Z,1.75
2024-03-21T02:12:59.978Z,1.79
2024-03-21T02:15:32.773Z,1.80
2024-03-21T02:18:04.650Z,1.82
2024-03-21T02:20:36.188Z,1.74
2024-03-21T02:23:07.680Z,1.70
2024-03-21T02:25:39.306Z,1.73
2024-03-21T02:28:10.924Z,1.74
2024-03-21T02:30:44.151Z,1.74
2024-03-21T02:33:15.538Z,1.75
2024-03-21T02:35:47.143Z,1.77
2024-03-21T02:38:18.586Z,1.78
2024-03-21T02:40:51.077Z,1.70
2024-03-21T02:43:23.154Z,1.71
2024-03-21T02:45:54.609Z,1.71
2024-03-21T02:48:26.112Z,1.72
2024-03-21T02:50:57.708Z,1.71
2024-03-21T02:53:29.294Z,1.70
2024-03-21T02:56:00.867Z,1.69
2024-03-21T02:58:32.369Z,1.67
2024-03-21T03:01:03.793Z,1.61
2024-03-21T03:03:35.385Z,1.52
2024-03-21T03:06:07.608Z,1.49
2024-03-21T03:08:39.275Z,1.45
2024-03-21T03:11:10.910Z,1.38
2024-03-21T03:13:42.588Z,1.32
2024-03-21T03:16:14.140Z,1.24
2024-03-21T03:18:45.718Z,1.19
2024-03-21T03:21:17.342Z,1.17
2024-03-21T03:23:49.213Z,1.14
2024-03-21T03:26:20.779Z,1.16
2024-03-21T03:28:52.244Z,1.11
2024-03-21T03:31:23.855Z,1.02
2024-03-21T03:34:13.171Z,0.98
2024-03-21T03:36:45.654Z,1.01
2024-03-21T03:39:17.277Z,1.03
2024-03-21T03:41:48.901Z,1.04
2024-03-21T03:44:21.590Z,1.01
2024-03-21T03:46:53.119Z,0.99
2024-03-21T03:49:24.781Z,0.96
2024-03-21T03:51:57.812Z,0.91
2024-03-21T03:54:29.692Z,0.87
2024-03-21T03:57:01.275Z,0.88
2024-03-21T03:59:32.707Z,0.84
2024-03-21T04:02:04.429Z,0.77
2024-03-21T04:04:35.920Z,0.78
2024-03-21T04:07:07.642Z,0.80
2024-03-21T04:09:39.037Z,0.83
2024-03-21T04:12:11.071Z,0.78
2024-03-21T04:14:42.738Z,0.72
2024-03-21T04:17:14.685Z,0.66
2024-03-21T04:19:46.217Z,0.65
2024-03-21T04:22:17.704Z,0.62
2024-03-21T04:24:49.229Z,0.67
2024-03-21T04:27:20.682Z,0.74
2024-03-21T04:29:52.968Z,0.69
2024-03-21T04:32:24.545Z,0.61
2024-03-21T04:34:56.054Z,0.53
2024-03-21T04:37:27.675Z,0.48
2024-03-21T04:39:59.134Z,0.46
2024-03-21T04:42:31.128Z,0.48
2024-03-21T04:45:02.784Z,0.54
2024-03-21T04:47:34.321Z,0.57
2024-03-21T04:50:06.062Z,0.60
2024-03-21T04:52:37.710Z,0.67
2024-03-21T04:55:10.875Z,0.76
2024-03-21T04:57:42.543Z,0.84
2024-03-21T05:00:14.740Z,0.90
2024-03-21T05:02:46.440Z,0.87
2024-03-21T05:05:18.105Z,0.85
2024-03-21T05:07:49.708Z,0.85
2024-03-21T05:10:21.152Z,0.89
2024-03-21T05:12:53.443Z,0.96
2024-03-21T05:15:25.382Z,1.00
2024-03-21T05:17:57.146Z,1.04
2024-03-21T05:20:29.040Z,1.09
2024-03-21T05:23:00.632Z,1.15
2024-03-21T05:25:32.303Z,1.17
2024-03-21T05:28:04.052Z,1.21
2024-03-21T05:30:35.722Z,1.30
2024-03-21T05:33:09.676Z,1.39
2024-03-21T05:35:41.295Z,1.49
2024-03-21T05:38:15.993Z,1.54
2024-03-21T05:40:48.621Z,1.56
2024-03-21T05:43:20.226Z,1.61
2024-03-21T05:45:51.638Z,1.66
2024-03-21T05:48:23.194Z,1.73
2024-03-21T05:50:54.806Z,1.81
2024-03-21T05:53:26.746Z,1.86
2024-03-21T05:56:00.898Z,1.90
2024-03-21T05:58:32.369Z,1.91
2024-03-21T06:01:23.064Z,1.95
2024-03-21T06:03:54.702Z,2.02
2024-03-21T06:06:26.119Z,2.09
2024-03-21T06:08:58.776Z,2.18
2024-03-21T06:11:30.267Z,2.26
2024-03-21T06:14:01.898Z,2.37
2024-03-21T06:16:33.578Z,2.49
2024-03-21T06:19:05.111Z,2.66
2024-03-21T06:21:39.209Z,2.85
2024-03-21T06:24:12.377Z,3.02
2024-03-21T06:26:43.914Z,3.14
2024-03-21T06:29:15.468Z,3.28
2024-03-21T06:31:47.067Z,3.43
2024-03-21T06:34:20.879Z,3.61
2024-03-21T06:36:53.889Z,3.79
2024-03-21T06:39:25.998Z,3.91
2024-03-21T06:41:57.449Z,4.04
2024-03-21T06:44:28.921Z,4.16
2024-03-21T06:47:01.476Z,4.21
2024-03-21T06:49:33.156Z,4.27
2024-03-21T06:52:04.572Z,4.34
2024-03-21T06:54:35.944Z,4.42
2024-03-21T06:57:08.267Z,4.46
2024-03-21T06:59:40.019Z,4.53
2024-03-21T07:02:12.139Z,4.63
2024-03-21T07:04:43.607Z,4.75
2024-03-21T07:07:15.183Z,4.86
2024-03-21T07:09:47.106Z,5.00
2024-03-21T07:12:18.798Z,5.08
2024-03-21T07:14:50.552Z,5.16
2024-03-21T07:17:23.591Z,5.25
2024-03-21T07:19:55.276Z,5.36
2024-03-21T07:22:26.880Z,5.44
2024-03-21T07:24:58.406Z,5.59
2024-03-21T07:27:29.960Z,5.75
2024-03-21T07:30:01.423Z,5.88
2024-03-21T07:32:35.983Z,5.99
2024-03-21T07:35:08.484Z,6.11
2024-03-21T07:37:39.923Z,6.17
2024-03-21T07:40:12.882Z,6.31
2024-03-21T07:42:44.477Z,6.43
2024-03-21T07:45:16.024Z,6.58
2024-03-21T07:47:47.565Z,6.71
2024-03-21T07:50:19.234Z,6.84
2024-03-21T07:52:50.818Z,7.04
2024-03-21T07:55:22.190Z,7.20
2024-03-21T07:57:53.776Z,7.38
2024-03-21T08:00:25.511Z,7.55
2024-03-21T08:02:56.996Z,7.76
2024-03-21T08:05:28.490Z,7.94
2024-03-21T08:08:00.061Z,8.05
2024-03-21T08:10:31.570Z,8.20
2024-03-21T08:13:03.216Z,8.40
2024-03-21T08:15:34.745Z,8.56
2024-03-21T08:18:06.910Z,8.81
2024-03-21T08:20:38.314Z,9.05
2024-03-21T08:23:09.727Z,9.30
2024-03-21T08:25:41.269Z,9.60
2024-03-21T08:28:14.150Z,9.76
2024-03-21T08:30:47.797Z,9.96
2024-03-21T08:33:20.986Z,10.12
2024-03-21T08:35:53.382Z,10.19
2024-03-21T08:38:25.516Z,10.42
2024-03-21T08:40:57.349Z,10.58
2024-03-21T08:43:28.863Z,10.67
2024-03-21T08:46:00.868Z,10.67
2024-03-21T08:48:32.577Z,10.65
2024-03-21T08:51:04.420Z,10.74
2024-03-21T08:53:38.810Z,10.92
2024-03-21T08:56:10.656Z,11.07
2024-03-21T08:58:42.333Z,11.24
2024-03-21T09:01:13.661Z,11.40
2024-03-21T09:03:45.143Z,11.50
2024-03-21T09:06:16.893Z,11.57
2024-03-21T09:08:49.276Z,11.79
2024-03-21T09:11:20.777Z,12.03
2024-03-21T09:13:52.448Z,12.22
2024-03-21T09:16:24.117Z,12.30
2024-03-21T09:18:55.783Z,12.34
2024-03-21T09:21:29.167Z,12.48
2024-03-21T09:24:00.764Z,12.66
2024-03-21T09:26:32.306Z,12.90
2024-03-21T09:29:03.828Z,13.10
2024-03-21T09:31:35.265Z,13.25
2024-03-21T09:34:06.821Z,13.37
2024-03-21T09:36:38.320Z,13.58
2024-03-21T09:39:10.728Z,13.85
2024-03-21T09:41:42.252Z,13.97
2024-03-21T09:44:16.955Z,14.15
2024-03-21T09:46:49.612Z,14.39
2024-03-21T09:49:21.202Z,14.42
2024-03-21T09:51:52.960Z,14.49
2024-03-21T09:54:24.741Z,14.58
2024-03-21T09:56:57.651Z,14.71
2024-03-21T09:59:29.450Z,14.87
2024-03-21T10:02:01.226Z,15.14
2024-03-21T10:04:41.696Z,15.42
2024-03-21T10:07:21.847Z,15.45
2024-03-21T10:09:57.977Z,15.52
2024-03-21T10:12:30.140Z,15.41
2024-03-21T10:15:01.844Z,15.40
2024-03-21T10:17:33.551Z,15.57
2024-03-21T10:20:05.563Z,15.69
2024-03-21T10:22:44.922Z,15.76
2024-03-21T10:25:20.177Z,15.93
2024-03-21T10:27:52.362Z,16.10
2024-03-21T10:30:25.644Z,16.38
2024-03-21T10:32:57.863Z,16.61
2024-03-21T10:35:32.856Z,16.76
2024-03-21T10:38:04.678Z,17.03
2024-03-21T10:40:37.493Z,17.13
2024-03-21T10:43:11.606Z,17.33
2024-03-21T10:45:44.364Z,17.79
2024-03-21T10:48:31.703Z,18.07
2024-03-21T10:51:13.433Z,18.39
2024-03-21T10:53:55.204Z,18.66
2024-03-21T10:56:27.769Z,18.97
2024-03-21T10:59:00.745Z,19.28
2024-03-21T11:01:39.958Z,19.58
2024-03-21T11:04:13.476Z,19.59
2024-03-21T11:06:46.489Z,19.67
2024-03-21T11:09:19.539Z,19.68
2024-03-21T11:11:51.649Z,19.47
2024-03-21T11:14:23.348Z,19.15
2024-03-21T11:16:57.687Z,19.00
2024-03-21T11:19:29.354Z,18.94
2024-03-21T11:22:01.602Z,18.94
2024-03-21T11:24:33.213Z,18.96
2024-03-21T11:27:05.676Z,19.01
2024-03-21T11:29:37.234Z,18.93
2024-03-21T11:32:09.112Z,18.90
2024-03-21T11:34:41.735Z,18.81
2024-03-21T11:37:16.662Z,18.54
2024-03-21T11:39:49.025Z,18.20
2024-03-21T11:42:21.777Z,17.94
2024-03-21T11:44:55.127Z,17.88
2024-03-21T11:47:26.783Z,17.90
2024-03-21T11:49:58.202Z,17.95
2024-03-21T11:52:29.812Z,17.89
2024-03-21T11:55:01.711Z,17.77
2024-03-21T11:57:33.732Z,17.67
2024-03-21T12:00:06.217Z,17.63
2024-03-21T12:02:44.348Z,17.61
2024-03-21T12:05:16.169Z,17.61
2024-03-21T12:07:48.580Z,17.90
2024-03-21T12:10:21.098Z,18.77
2024-03-21T12:12:52.587Z,19.45
2024-03-21T12:15:25.059Z,19.36
2024-03-21T12:17:56.496Z,19.01
2024-03-21T12:20:28.132Z,18.77
2024-03-21T12:22:59.788Z,18.48
2024-03-21T12:25:31.358Z,18.32
2024-03-21T12:28:03.058Z,18.30
2024-03-21T12:30:40.200Z,18.30
2024-03-21T12:33:13.481Z,18.35
2024-03-21T12:35:45.199Z,18.50
2024-03-21T12:38:16.732Z,18.57
2024-03-21T12:40:49.162Z,18.88
2024-03-21T12:43:20.861Z,19.65
2024-03-21T12:45:53.556Z,20.89
2024-03-21T12:48:25.407Z,22.00
2024-03-21T12:50:57.326Z,22.47
2024-03-21T12:53:28.948Z,22.22
2024-03-21T12:56:00.573Z,21.73
2024-03-21T12:58:32.103Z,21.41
2024-03-21T13:01:03.561Z,20.98
2024-03-21T13:03:35.039Z,20.81
2024-03-21T13:06:07.995Z,20.84
2024-03-21T13:08:39.602Z,20.76
2024-03-21T13:11:11.085Z,20.62
2024-03-21T13:13:42.753Z,20.82
2024-03-21T13:16:14.367Z,21.08
2024-03-21T13:18:45.889Z,21.18
2024-03-21T13:21:17.614Z,21.29
2024-03-21T13:23:49.212Z,21.01
2024-03-21T13:26:20.714Z,21.02
2024-03-21T13:28:52.815Z,21.27
2024-03-21T13:31:24.660Z,21.65
2024-03-21T13:33:56.762Z,22.07
2024-03-21T13:36:28.352Z,22.72
2024-03-21T13:39:03.228Z,23.68
2024-03-21T13:41:34.997Z,24.28
2024-03-21T13:44:06.868Z,24.29
2024-03-21T13:46:38.829Z,23.96
2024-03-21T13:49:11.805Z,23.76
2024-03-21T13:51:43.275Z,23.63
2024-03-21T13:54:17.408Z,24.30
2024-03-21T13:56:49.535Z,23.89
2024-03-21T13:59:21.299Z,23.64
2024-03-21T14:01:53.127Z,23.46
2024-03-21T14:04:24.698Z,23.40
2024-03-21T14:06:56.375Z,23.32
2024-03-21T14:09:28.031Z,22.67
2024-03-21T14:12:01.464Z,22.06
2024-03-21T14:14:33.869Z,21.59
2024-03-21T14:17:05.538Z,21.60
2024-03-21T14:19:37.179Z,21.42
2024-03-21T14:22:08.742Z,21.10
2024-03-21T14:24:40.181Z,21.42
2024-03-21T14:27:11.782Z,21.28
2024-03-21T14:29:43.406Z,20.72
2024-03-21T14:32:15.020Z,20.27
2024-03-21T14:34:48.921Z,19.72
2024-03-21T14:37:22.289Z,19.28
2024-03-21T14:39:59.221Z,18.96
2024-03-21T14:42:30.670Z,18.67
2024-03-21T14:45:18.138Z,18.53
2024-03-21T14:47:53.982Z,18.32
2024-03-21T14:50:25.520Z,18.20
2024-03-21T14:52:58.252Z,18.07
2024-03-21T14:55:30.007Z,17.89
2024-03-21T14:58:01.370Z,17.66
2024-03-21T15:00:33.215Z,17.45
2024-03-21T15:03:05.453Z,17.37
2024-03-21T15:05:37.043Z,17.26
2024-03-21T15:08:09.148Z,17.07
2024-03-21T15:10:40.886Z,16.92
2024-03-21T15:13:12.386Z,16.85
2024-03-21T15:15:44.074Z,16.83
2024-03-21T15:18:15.659Z,16.81
2024-03-21T15:20:48.040Z,16.80
2024-03-21T15:23:19.666Z,16.72
2024-03-21T15:25:51.240Z,16.64
2024-03-21T15:28:22.929Z,16.56
2024-03-21T15:30:55.009Z,16.48
2024-03-21T15:33:26.474Z,16.39
2024-03-21T15:35:58.083Z,16.29
2024-03-21T15:38:29.883Z,16.21
2024-03-21T15:41:01.752Z,16.12
2024-03-21T15:43:37.960Z,16.06
2024-03-21T15:46:09.650Z,15.99
2024-03-21T15:48:41.204Z,15.93
2024-03-21T15:51:12.774Z,15.89
2024-03-21T15:53:44.304Z,15.85
2024-03-21T15:56:16.568Z,15.81
2024-03-21T15:58:48.433Z,15.78
2024-03-21T16:01:20.009Z,15.73
2024-03-21T16:03:51.455Z,15.65
2024-03-21T16:06:25.588Z,15.59
2024-03-21T16:08:58.429Z,15.55
2024-03-21T16:11:33.373Z,15.48
2024-03-21T16:14:07.758Z,15.38
2024-03-21T16:16:39.248Z,15.31
2024-03-21T16:19:10.746Z,15.27
2024-03-21T16:21:42.327Z,15.24
2024-03-21T16:24:13.862Z,15.19
2024-03-21T16:26:45.475Z,15.15
2024-03-21T16:29:17.230Z,15.13
2024-03-21T16:31:48.666Z,15.10
2024-03-21T16:34:20.295Z,15.07
2024-03-21T16:36:51.947Z,15.02
2024-03-21T16:39:24.297Z,14.96
2024-03-21T16:41:57.205Z,14.89
2024-03-21T16:44:28.738Z,14.80
2024-03-21T16:47:00.489Z,14.72
2024-03-21T16:49:32.561Z,14.66
2024-03-21T16:52:04.651Z,14.60
2024-03-21T16:54:36.143Z,14.53
2024-03-21T16:57:08.088Z,14.47
2024-03-21T16:59:40.205Z,14.41
2024-03-21T17:02:11.603Z,14.29
2024-03-21T17:04:43.047Z,14.19
2024-03-21T17:07:14.606Z,14.16
2024-03-21T17:09:46.097Z,14.09
2024-03-21T17:12:17.656Z,14.02
2024-03-21T17:14:50.062Z,13.96
2024-03-21T17:17:21.642Z,13.93
2024-03-21T17:19:53.167Z,13.89
2024-03-21T17:22:24.725Z,13.84
2024-03-21T17:24:56.077Z,13.74
2024-03-21T17:27:27.810Z,13.67
2024-03-21T17:29:59.271Z,13.62
2024-03-21T17:32:31.225Z,13.56
2024-03-21T17:35:04.147Z,13.51
2024-03-21T17:37:35.713Z,13.45
2024-03-21T17:40:09.902Z,13.41
2024-03-21T17:42:41.323Z,13.35
2024-03-21T17:45:12.849Z,13.31
2024-03-21T17:47:44.413Z,13.22
2024-03-21T17:50:16.745Z,13.11
2024-03-21T17:52:48.168Z,13.05
2024-03-21T17:55:19.753Z,13.01
2024-03-21T17:57:51.204Z,12.97
2024-03-21T18:00:23.123Z,12.96
2024-03-21T18:02:54.738Z,12.90
2024-03-21T18:05:26.365Z,12.85
2024-03-21T18:07:57.924Z,12.81
2024-03-21T18:10:30.052Z,12.76
2024-03-21T18:13:01.511Z,12.68
2024-03-21T18:15:32.979Z,12.62
2024-03-21T18:18:04.691Z,12.58
2024-03-21T18:20:42.564Z,12.55
2024-03-21T18:23:15.975Z,12.52
2024-03-21T18:25:48.377Z,12.51
2024-03-21T18:28:20.243Z,12.48
2024-03-21T18:30:51.781Z,12.46
2024-03-21T18:33:23.206Z,12.45
2024-03-21T18:35:59.093Z,12.41
2024-03-21T18:38:30.507Z,12.38
2024-03-21T18:41:02.450Z,12.39
2024-03-21T18:43:35.490Z,12.39
2024-03-21T18:46:07.291Z,12.37
2024-03-21T18:48:38.903Z,12.30
2024-03-21T18:51:10.295Z,12.28
2024-03-21T18:53:41.810Z,12.28
2024-03-21T18:56:14.787Z,12.25
2024-03-21T18:58:46.289Z,12.20
2024-03-21T19:01:17.777Z,12.14
2024-03-21T19:03:49.247Z,12.10
2024-03-21T19:06:21.357Z,12.07
2024-03-21T19:08:52.821Z,12.01
2024-03-21T19:11:24.741Z,12.02
2024-03-21T19:13:56.159Z,11.99
2024-03-21T19:16:27.799Z,11.95
2024-03-21T19:18:59.380Z,11.94
2024-03-21T19:21:30.994Z,11.91
2024-03-21T19:24:02.411Z,11.92
2024-03-21T19:26:33.912Z,11.93
2024-03-21T19:29:05.448Z,11.88
2024-03-21T19:31:38.274Z,11.85
2024-03-21T19:34:10.154Z,11.79
2024-03-21T19:36:41.599Z,11.79
2024-03-21T19:39:13.520Z,11.81
2024-03-21T19:41:45.509Z,11.81
2024-03-21T19:44:17.026Z,11.77
2024-03-21T19:46:48.561Z,11.71
2024-03-21T19:49:20.181Z,11.73
2024-03-21T19:51:52.117Z,11.75
2024-03-21T19:54:23.743Z,11.76
2024-03-21T19:56:55.218Z,11.76
2024-03-21T19:59:26.880Z,11.70
2024-03-21T20:01:58.345Z,11.67
2024-03-21T20:04:29.797Z,11.62
2024-03-21T20:07:01.761Z,11.58
2024-03-21T20:09:33.605Z,11.58
2024-03-21T20:12:05.381Z,11.56
2024-03-21T20:14:36.919Z,11.52
2024-03-21T20:17:08.471Z,11.51
2024-03-21T20:19:39.994Z,11.53
2024-03-21T20:22:11.655Z,11.54
2024-03-21T20:24:43.227Z,11.54
2024-03-21T20:27:15.216Z,11.51
2024-03-21T20:29:46.723Z,11.50
2024-03-21T20:32:18.173Z,11.49
2024-03-21T20:34:49.651Z,11.47
2024-03-21T20:37:21.448Z,11.45
2024-03-21T20:39:54.998Z,11.45
2024-03-21T20:42:27.471Z,11.41
2024-03-21T20:44:58.804Z,11.37
2024-03-21T20:47:30.568Z,11.35
2024-03-21T20:50:02.254Z,11.32
2024-03-21T20:52:33.676Z,11.31
2024-03-21T20:55:05.483Z,11.30
2024-03-21T20:57:36.936Z,11.30
2024-03-21T21:00:12.946Z,11.30
2024-03-21T21:02:44.597Z,11.34
2024-03-21T21:05:15.921Z,11.37
2024-03-21T21:07:47.331Z,11.40
2024-03-21T21:10:18.928Z,11.44
2024-03-21T21:12:50.485Z,11.47
2024-03-21T21:15:21.898Z,11.49
2024-03-21T21:17:53.307Z,11.52
2024-03-21T21:20:25.066Z,11.55
2024-03-21T21:22:57.218Z,11.57
2024-03-21T21:25:28.790Z,11.57
2024-03-21T21:28:00.447Z,11.57
2024-03-21T21:30:31.892Z,11.56
2024-03-21T21:33:03.328Z,11.56
2024-03-21T21:35:34.695Z,11.57
2024-03-21T21:38:06.490Z,11.54
2024-03-21T21:40:37.980Z,11.53
2024-03-21T21:43:09.482Z,11.49
2024-03-21T21:45:49.015Z,11.45
2024-03-21T21:48:20.942Z,11.36
2024-03-21T21:51:00.887Z,11.28
2024-03-21T21:53:34.208Z,11.18
2024-03-21T21:56:09.218Z,11.13
2024-03-21T21:58:42.785Z,11.09
2024-03-21T22:01:15.134Z,11.04
2024-03-21T22:03:47.254Z,10.98
2024-03-21T22:06:19.344Z,10.93
2024-03-21T22:08:50.936Z,10.88
2024-03-21T22:11:22.285Z,10.85
2024-03-21T22:13:53.858Z,10.82
2024-03-21T22:16:25.884Z,10.79
2024-03-21T22:18:57.997Z,10.75
2024-03-21T22:21:29.467Z,10.70
2024-03-21T22:24:01.029Z,10.66
2024-03-21T22:26:32.633Z,10.61
2024-03-21T22:29:04.118Z,10.57
2024-03-21T22:31:35.439Z,10.54
2024-03-21T22:34:06.765Z,10.50
2024-03-21T22:36:38.170Z,10.48
2024-03-21T22:39:11.623Z,10.48
2024-03-21T22:41:43.073Z,10.47
2024-03-21T22:44:14.516Z,10.47
2024-03-21T22:46:46.100Z,10.47
2024-03-21T22:49:17.694Z,10.48
2024-03-21T22:51:49.212Z,10.49
2024-03-21T22:54:20.778Z,10.51
2024-03-21T22:56:52.191Z,10.52
2024-03-21T22:59:23.724Z,10.52
2024-03-21T23:01:55.103Z,10.51
2024-03-21T23:04:29.119Z,10.50
2024-03-21T23:07:00.968Z,10.49
2024-03-21T23:09:32.728Z,10.49
2024-03-21T23:12:04.391Z,10.49
2024-03-21T23:14:35.803Z,10.53
2024-03-21T23:17:08.013Z,10.55
2024-03-21T23:19:39.515Z,10.57
2024-03-21T23:22:10.956Z,10.61
2024-03-21T23:24:42.700Z,10.65
2024-03-21T23:27:14.066Z,10.69
2024-03-21T23:29:45.562Z,10.72
2024-03-21T23:32:17.005Z,10.74
2024-03-21T23:34:49.005Z,10.75
2024-03-21T23:37:20.393Z,10.76
2024-03-21T23:39:51.852Z,10.77
2024-03-21T23:42:23.381Z,10.77
2024-03-21T23:44:54.781Z,10.75
2024-03-21T23:47:26.278Z,10.75
2024-03-21T23:49:57.679Z,10.74
2024-03-21T23:52:29.459Z,10.74
2024-03-21T23:55:00.797Z,10.73
2024-03-21T23:57:32.889Z,10.73
